Strona główna
METAR-TAF:

METAR-TAF

Lotnisko :

Francis S. Gabreski Airport

Westhampton Beach, Nowy Jork, Stany Zjednoczone

Szerokość geograficzna: 40-51-03N, Długość geograficzna: 072-37-14W, wysokość: 20 m

Aktualna obserwacja pogody

Raport powstał 17 minut temu, godzina 01:53 UTC
Wiatr 16 kt od północno-północny wschód w porywach dochodzący do 22 kt
Temperatura 8°C
Wilgotność 81%
Ciśnienie 1009 hPa
Widzialność: 16.1 km
Zachmurzenie całkowite na wysokości 2700 ft

METAR: KFOK 040153Z 02016G22KT 10SM OVC027 08/05 A2981 RMK AO2 PK WND 01029/0130 SLP095 T00830050

czas: 22:10 (02:10 UTC)


TAF: brakujący

Obserwacja i prognoza pogody dla ponad 4000 lotnisk (raport METAR i TAF).

Dostępne stacje oznaczono żółtymi i czerwonymi punktami na mapie.

Najedź kursorem aby zobaczyć nazwę stacji.

Kliknij aby zobaczyć obserwacje i prognozy pogody.

Aby zmienić mapę: kliknij na zielony przycisk z czarnym krzyżykiem, aby powiększyć; na zielony przycisk z myślnikiem, aby pomniejszyć; na zielone strzałki, aby przejść do map sąsiednich.


METAR-TAF: